createdAt,value
2023-01-20T00:00:03.290Z,970.36
2023-01-20T00:01:03.294Z,970.36
2023-01-20T00:02:03.310Z,970.39
2023-01-20T00:03:03.287Z,970.37
2023-01-20T00:04:03.566Z,970.34
2023-01-20T00:05:03.419Z,970.34
2023-01-20T00:06:03.420Z,970.44
2023-01-20T00:07:03.455Z,970.40
2023-01-20T00:08:03.574Z,970.44
2023-01-20T00:09:03.675Z,970.42
2023-01-20T00:10:03.578Z,970.44
2023-01-20T00:11:03.566Z,970.50
2023-01-20T00:12:03.546Z,970.44
2023-01-20T00:13:03.623Z,970.37
2023-01-20T00:14:03.569Z,970.32
2023-01-20T00:15:03.618Z,970.40
2023-01-20T00:16:03.779Z,970.40
2023-01-20T00:17:03.698Z,970.45
2023-01-20T00:18:03.660Z,970.53
2023-01-20T00:19:03.655Z,970.61
2023-01-20T00:20:03.528Z,970.56
2023-01-20T00:21:03.590Z,970.53
2023-01-20T00:22:03.694Z,970.64
2023-01-20T00:23:03.584Z,970.53
2023-01-20T00:24:03.648Z,970.62
2023-01-20T00:25:03.614Z,970.54
2023-01-20T00:26:03.545Z,970.59
2023-01-20T00:27:03.627Z,970.48
2023-01-20T00:28:03.633Z,970.57
2023-01-20T00:29:03.666Z,970.59
2023-01-20T00:30:03.565Z,970.70
2023-01-20T00:31:03.501Z,970.57
2023-01-20T00:32:03.434Z,970.51
2023-01-20T00:33:03.351Z,970.68
2023-01-20T00:34:03.336Z,970.59
2023-01-20T00:35:03.326Z,970.59
2023-01-20T00:36:03.380Z,970.68
2023-01-20T00:37:03.467Z,970.73
2023-01-20T00:38:03.444Z,970.62
2023-01-20T00:39:03.529Z,970.71
2023-01-20T00:40:03.383Z,970.68
2023-01-20T00:41:03.391Z,970.71
2023-01-20T00:42:03.298Z,970.73
2023-01-20T00:43:03.332Z,970.85
2023-01-20T00:44:03.538Z,970.73
2023-01-20T00:45:03.624Z,970.71
2023-01-20T00:46:03.542Z,970.79
2023-01-20T00:47:03.474Z,970.85
2023-01-20T00:48:03.470Z,970.79
2023-01-20T00:49:03.536Z,970.87
2023-01-20T00:50:03.662Z,970.68
2023-01-20T00:51:03.554Z,970.82
2023-01-20T00:52:03.512Z,970.95
2023-01-20T00:53:03.548Z,971.07
2023-01-20T00:54:03.602Z,970.93
2023-01-20T00:55:03.482Z,970.90
2023-01-20T00:56:03.569Z,970.98
2023-01-20T00:57:03.579Z,970.85
2023-01-20T00:58:03.476Z,970.98
2023-01-20T00:59:03.537Z,971.04
2023-01-20T01:00:03.569Z,970.87
2023-01-20T01:01:04.047Z,971.12
2023-01-20T01:02:04.026Z,971.15
2023-01-20T01:03:03.660Z,971.06
2023-01-20T01:04:03.702Z,971.15
2023-01-20T01:05:03.771Z,971.09
2023-01-20T01:06:03.669Z,971.15
2023-01-20T01:07:03.710Z,971.04
2023-01-20T01:08:03.784Z,970.98
2023-01-20T01:09:03.844Z,971.03
2023-01-20T01:10:03.176Z,971.06
2023-01-20T01:11:03.106Z,971.14
2023-01-20T01:12:03.189Z,971.14
2023-01-20T01:13:03.152Z,971.12
2023-01-20T01:14:03.159Z,971.12
2023-01-20T01:15:03.314Z,971.20
2023-01-20T01:16:03.452Z,971.14
2023-01-20T01:17:03.344Z,971.17
2023-01-20T01:18:03.355Z,971.20
2023-01-20T01:19:03.453Z,971.11
2023-01-20T01:20:03.436Z,971.17
2023-01-20T01:21:03.372Z,971.25
2023-01-20T01:22:03.417Z,971.20
2023-01-20T01:23:03.521Z,971.22
2023-01-20T01:24:03.810Z,971.17
2023-01-20T01:25:03.544Z,971.19
2023-01-20T01:26:03.534Z,971.22
2023-01-20T01:27:03.587Z,971.33
2023-01-20T01:28:03.694Z,971.44
2023-01-20T01:29:03.626Z,971.25
2023-01-20T01:30:03.573Z,971.28
2023-01-20T01:31:03.745Z,971.25
2023-01-20T01:32:03.544Z,971.28
2023-01-20T01:33:03.521Z,971.25
2023-01-20T01:34:03.515Z,971.25
2023-01-20T01:35:03.440Z,971.36
2023-01-20T01:36:03.680Z,971.22
2023-01-20T01:37:03.625Z,971.33
2023-01-20T01:38:03.550Z,971.28
2023-01-20T01:39:03.551Z,971.25
2023-01-20T01:40:03.595Z,971.17
2023-01-20T01:41:03.514Z,971.31
2023-01-20T01:42:03.577Z,971.33
2023-01-20T01:43:03.630Z,971.14
2023-01-20T01:44:03.715Z,971.22
2023-01-20T01:45:03.851Z,971.33
2023-01-20T01:46:03.924Z,971.28
2023-01-20T01:47:03.883Z,971.33
2023-01-20T01:48:03.872Z,971.28
2023-01-20T01:49:03.839Z,971.33
2023-01-20T01:50:03.020Z,971.33
2023-01-20T01:51:03.238Z,971.45
2023-01-20T01:52:03.160Z,971.39
2023-01-20T01:53:03.144Z,971.39
2023-01-20T01:54:03.235Z,971.39
2023-01-20T01:55:03.287Z,971.42
2023-01-20T01:56:03.388Z,971.47
2023-01-20T01:57:03.264Z,971.50
2023-01-20T01:58:03.335Z,971.39
2023-01-20T01:59:03.396Z,971.47
2023-01-20T02:00:03.257Z,971.50
2023-01-20T02:01:03.554Z,971.53
2023-01-20T02:02:03.471Z,971.56
2023-01-20T02:03:03.264Z,971.50
2023-01-20T02:04:03.203Z,971.58
2023-01-20T02:05:03.137Z,971.58
2023-01-20T02:06:03.137Z,971.56
2023-01-20T02:07:03.044Z,971.61
2023-01-20T02:08:03.104Z,971.58
2023-01-20T02:09:03.222Z,971.56
2023-01-20T02:10:03.117Z,971.69
2023-01-20T02:11:03.177Z,971.58
2023-01-20T02:12:03.075Z,971.61
2023-01-20T02:13:03.318Z,971.69
2023-01-20T02:14:03.579Z,971.61
2023-01-20T02:15:03.516Z,971.58
2023-01-20T02:16:03.403Z,971.58
2023-01-20T02:17:03.566Z,971.58
2023-01-20T02:18:03.522Z,971.64
2023-01-20T02:19:03.393Z,971.53
2023-01-20T02:20:03.458Z,971.72
2023-01-20T02:21:03.448Z,971.64
2023-01-20T02:22:03.518Z,971.53
2023-01-20T02:23:03.516Z,971.64
2023-01-20T02:24:03.592Z,971.61
2023-01-20T02:25:03.589Z,971.80
2023-01-20T02:26:03.546Z,971.69
2023-01-20T02:27:03.578Z,971.72
2023-01-20T02:28:03.564Z,971.64
2023-01-20T02:29:03.475Z,971.75
2023-01-20T02:30:03.480Z,971.85
2023-01-20T02:31:03.458Z,971.75
2023-01-20T02:32:03.610Z,971.80
2023-01-20T02:33:03.557Z,971.72
2023-01-20T02:34:03.558Z,971.75
2023-01-20T02:35:03.439Z,971.90
2023-01-20T02:36:03.488Z,971.75
2023-01-20T02:37:03.508Z,971.80
2023-01-20T02:38:03.520Z,971.67
2023-01-20T02:39:03.457Z,971.72
2023-01-20T02:40:03.497Z,971.72
2023-01-20T02:41:03.492Z,971.83
2023-01-20T02:42:03.535Z,971.81
2023-01-20T02:43:03.433Z,971.75
2023-01-20T02:44:03.439Z,971.75
2023-01-20T02:45:03.425Z,971.93
2023-01-20T02:46:03.621Z,971.81
2023-01-20T02:47:05.254Z,971.85
2023-01-20T02:48:03.536Z,971.83
2023-01-20T02:49:03.642Z,971.97
2023-01-20T02:50:03.542Z,971.88
2023-01-20T02:51:03.561Z,971.97
2023-01-20T02:52:03.490Z,972.00
2023-01-20T02:53:03.364Z,971.91
2023-01-20T02:54:03.371Z,971.86
2023-01-20T02:55:03.468Z,971.91
2023-01-20T02:56:03.440Z,971.97
2023-01-20T02:57:03.406Z,971.97
2023-01-20T02:58:03.478Z,971.83
2023-01-20T02:59:03.543Z,971.92
2023-01-20T03:00:03.563Z,971.95
2023-01-20T03:01:03.834Z,971.89
2023-01-20T03:02:04.119Z,972.08
2023-01-20T03:03:03.784Z,971.95
2023-01-20T03:04:03.255Z,971.95
2023-01-20T03:05:03.095Z,972.00
2023-01-20T03:06:03.276Z,972.03
2023-01-20T03:07:03.138Z,971.95
2023-01-20T03:08:03.493Z,971.87
2023-01-20T03:09:03.393Z,972.04
2023-01-20T03:10:03.419Z,972.01
2023-01-20T03:11:03.389Z,971.90
2023-01-20T03:12:03.346Z,972.06
2023-01-20T03:13:03.271Z,971.98
2023-01-20T03:14:03.339Z,971.93
2023-01-20T03:15:03.204Z,972.04
2023-01-20T03:16:03.275Z,972.01
2023-01-20T03:17:03.352Z,972.07
2023-01-20T03:18:03.272Z,972.04
2023-01-20T03:19:03.251Z,972.04
2023-01-20T03:20:03.349Z,972.15
2023-01-20T03:21:03.219Z,972.26
2023-01-20T03:22:03.243Z,972.23
2023-01-20T03:23:03.154Z,972.15
2023-01-20T03:24:03.302Z,972.15
2023-01-20T03:25:03.174Z,972.10
2023-01-20T03:26:03.248Z,972.15
2023-01-20T03:27:03.283Z,972.18
2023-01-20T03:28:03.258Z,972.09
2023-01-20T03:29:03.245Z,972.23
2023-01-20T03:30:03.302Z,972.29
2023-01-20T03:31:03.415Z,972.23
2023-01-20T03:32:03.176Z,972.23
2023-01-20T03:33:03.160Z,972.26
2023-01-20T03:34:03.071Z,972.32
2023-01-20T03:35:03.051Z,972.43
2023-01-20T03:36:03.083Z,972.34
2023-01-20T03:37:03.125Z,972.29
2023-01-20T03:38:03.032Z,972.34
2023-01-20T03:39:03.054Z,972.29
2023-01-20T03:40:03.056Z,972.37
2023-01-20T03:41:02.909Z,972.32
2023-01-20T03:42:03.067Z,972.32
2023-01-20T03:43:03.066Z,972.32
2023-01-20T03:44:02.911Z,972.37
2023-01-20T03:45:02.937Z,972.37
2023-01-20T03:46:03.575Z,972.40
2023-01-20T03:47:03.439Z,972.34
2023-01-20T03:48:03.368Z,972.34
2023-01-20T03:49:03.407Z,972.43
2023-01-20T03:50:03.391Z,972.29
2023-01-20T03:51:03.474Z,972.43
2023-01-20T03:52:03.469Z,972.40
2023-01-20T03:53:03.410Z,972.32
2023-01-20T03:54:03.387Z,972.32
2023-01-20T03:55:03.398Z,972.37
2023-01-20T03:56:03.432Z,972.43
2023-01-20T03:57:03.685Z,972.37
2023-01-20T03:58:03.026Z,972.40
2023-01-20T03:59:03.109Z,972.43
2023-01-20T04:00:03.104Z,972.43
2023-01-20T04:01:19.096Z,972.37
2023-01-20T04:02:03.284Z,972.43
2023-01-20T04:03:03.130Z,972.46
2023-01-20T04:04:03.187Z,972.35
2023-01-20T04:05:03.239Z,972.40
2023-01-20T04:06:03.223Z,972.49
2023-01-20T04:07:03.260Z,972.38
2023-01-20T04:08:03.330Z,972.56
2023-01-20T04:09:03.470Z,972.21
2023-01-20T04:10:03.395Z,972.29
2023-01-20T04:11:03.450Z,972.38
2023-01-20T04:12:03.796Z,972.53
2023-01-20T04:13:03.861Z,972.40
2023-01-20T04:14:03.820Z,972.38
2023-01-20T04:15:03.861Z,972.46
2023-01-20T04:16:03.837Z,972.43
2023-01-20T04:17:03.831Z,972.43
2023-01-20T04:18:03.810Z,972.38
2023-01-20T04:19:02.899Z,972.35
2023-01-20T04:20:02.909Z,972.26
2023-01-20T04:21:02.859Z,972.62
2023-01-20T04:22:02.938Z,972.56
2023-01-20T04:23:03.842Z,972.32
2023-01-20T04:24:02.898Z,972.56
2023-01-20T04:25:02.943Z,972.40
2023-01-20T04:26:03.869Z,972.59
2023-01-20T04:27:03.834Z,972.49
2023-01-20T04:28:03.887Z,972.59
2023-01-20T04:29:03.789Z,972.64
2023-01-20T04:30:03.114Z,972.59
2023-01-20T04:31:03.422Z,972.67
2023-01-20T04:32:03.321Z,972.62
2023-01-20T04:33:03.223Z,972.59
2023-01-20T04:34:03.189Z,972.73
2023-01-20T04:35:03.178Z,972.67
2023-01-20T04:36:03.126Z,972.53
2023-01-20T04:37:03.079Z,972.73
2023-01-20T04:38:03.091Z,972.56
2023-01-20T04:39:03.105Z,972.67
2023-01-20T04:40:03.076Z,972.59
2023-01-20T04:41:04.028Z,972.78
2023-01-20T04:42:03.160Z,972.70
2023-01-20T04:43:03.106Z,972.62
2023-01-20T04:44:03.089Z,972.73
2023-01-20T04:45:03.067Z,972.65
2023-01-20T04:46:03.228Z,972.70
2023-01-20T04:47:03.157Z,972.76
2023-01-20T04:48:03.240Z,972.92
2023-01-20T04:49:03.177Z,972.81
2023-01-20T04:50:03.174Z,972.79
2023-01-20T04:51:03.272Z,972.70
2023-01-20T04:52:03.311Z,972.82
2023-01-20T04:53:03.271Z,972.76
2023-01-20T04:54:03.211Z,972.87
2023-01-20T04:55:03.249Z,972.85
2023-01-20T04:56:03.252Z,972.90
2023-01-20T04:57:03.298Z,972.84
2023-01-20T04:58:03.271Z,973.01
2023-01-20T04:59:03.239Z,972.87
2023-01-20T05:00:03.357Z,972.90
2023-01-20T05:01:03.361Z,972.93
2023-01-20T05:02:03.441Z,973.04
2023-01-20T05:03:03.391Z,972.90
2023-01-20T05:04:03.305Z,972.90
2023-01-20T05:05:03.466Z,972.79
2023-01-20T05:06:03.469Z,972.90
2023-01-20T05:07:03.340Z,972.88
2023-01-20T05:08:03.478Z,972.93
2023-01-20T05:09:03.490Z,972.74
2023-01-20T05:10:03.454Z,972.91
2023-01-20T05:11:03.408Z,972.80
2023-01-20T05:12:03.426Z,973.02
2023-01-20T05:13:03.482Z,972.85
2023-01-20T05:14:03.568Z,972.88
2023-01-20T05:15:03.512Z,972.88
2023-01-20T05:16:03.683Z,972.97
2023-01-20T05:17:03.450Z,972.97
2023-01-20T05:18:03.404Z,972.99
2023-01-20T05:19:03.420Z,972.88
2023-01-20T05:20:03.484Z,973.08
2023-01-20T05:21:03.399Z,973.11
2023-01-20T05:22:03.115Z,973.08
2023-01-20T05:23:03.217Z,973.00
2023-01-20T05:24:03.188Z,973.11
2023-01-20T05:25:03.479Z,973.08
2023-01-20T05:26:03.496Z,973.11
2023-01-20T05:27:03.564Z,973.08
2023-01-20T05:28:03.530Z,973.14
2023-01-20T05:29:03.546Z,973.14
2023-01-20T05:30:03.514Z,973.03
2023-01-20T05:31:04.020Z,973.20
2023-01-20T05:32:03.482Z,973.03
2023-01-20T05:33:03.436Z,973.20
2023-01-20T05:34:03.298Z,973.14
2023-01-20T05:35:03.269Z,973.09
2023-01-20T05:36:03.304Z,973.12
2023-01-20T05:37:03.234Z,973.17
2023-01-20T05:38:03.256Z,973.07
2023-01-20T05:39:03.293Z,973.20
2023-01-20T05:40:03.223Z,972.98
2023-01-20T05:41:03.365Z,973.18
2023-01-20T05:42:03.257Z,973.15
2023-01-20T05:43:03.166Z,973.15
2023-01-20T05:44:03.228Z,973.24
2023-01-20T05:45:03.217Z,973.38
2023-01-20T05:46:03.275Z,973.43
2023-01-20T05:47:03.114Z,973.38
2023-01-20T05:48:03.157Z,973.24
2023-01-20T05:49:03.111Z,973.27
2023-01-20T05:50:03.053Z,973.35
2023-01-20T05:51:03.071Z,973.35
2023-01-20T05:52:03.007Z,973.24
2023-01-20T05:53:02.894Z,973.36
2023-01-20T05:54:02.894Z,973.47
2023-01-20T05:55:02.903Z,973.41
2023-01-20T05:56:02.927Z,973.36
2023-01-20T05:57:02.950Z,973.41
2023-01-20T05:58:02.888Z,973.47
2023-01-20T05:59:02.892Z,973.52
2023-01-20T06:00:02.875Z,973.36
2023-01-20T06:01:03.983Z,973.42
2023-01-20T06:02:03.913Z,973.53
2023-01-20T06:03:03.933Z,973.58
2023-01-20T06:04:03.875Z,973.39
2023-01-20T06:05:03.668Z,973.48
2023-01-20T06:06:03.775Z,973.48
2023-01-20T06:07:03.775Z,973.61
2023-01-20T06:08:03.728Z,973.53
2023-01-20T06:09:03.773Z,973.58
2023-01-20T06:10:03.784Z,973.61
2023-01-20T06:11:03.757Z,973.58
2023-01-20T06:12:03.682Z,973.56
2023-01-20T06:13:03.688Z,973.61
2023-01-20T06:14:03.811Z,973.69
2023-01-20T06:15:03.709Z,973.69
2023-01-20T06:16:07.384Z,973.61
2023-01-20T06:17:03.719Z,973.78
2023-01-20T06:18:03.575Z,973.75
2023-01-20T06:19:03.588Z,973.67
2023-01-20T06:20:03.556Z,973.67
2023-01-20T06:21:03.690Z,973.73
2023-01-20T06:22:03.595Z,973.75
2023-01-20T06:23:03.555Z,973.95
2023-01-20T06:24:03.667Z,973.75
2023-01-20T06:25:03.481Z,973.75
2023-01-20T06:26:03.284Z,973.89
2023-01-20T06:27:03.363Z,973.70
2023-01-20T06:28:03.323Z,973.84
2023-01-20T06:29:03.442Z,973.81
2023-01-20T06:30:03.376Z,973.89
2023-01-20T06:31:03.637Z,973.86
2023-01-20T06:32:03.280Z,973.78
2023-01-20T06:33:03.365Z,973.81
2023-01-20T06:34:03.321Z,973.84
2023-01-20T06:35:03.380Z,973.76
2023-01-20T06:36:03.336Z,973.92
2023-01-20T06:37:03.371Z,974.01
2023-01-20T06:38:03.270Z,973.98
2023-01-20T06:39:03.329Z,973.90
2023-01-20T06:40:03.318Z,973.93
2023-01-20T06:41:03.370Z,973.90
2023-01-20T06:42:03.281Z,974.12
2023-01-20T06:43:03.438Z,974.07
2023-01-20T06:44:03.277Z,974.15
2023-01-20T06:45:03.171Z,974.02
2023-01-20T06:46:03.238Z,974.05
2023-01-20T06:47:03.108Z,974.13
2023-01-20T06:48:03.117Z,973.99
2023-01-20T06:49:03.185Z,974.24
2023-01-20T06:50:02.928Z,974.05
2023-01-20T06:51:02.942Z,974.19
2023-01-20T06:52:03.886Z,974.19
2023-01-20T06:53:03.860Z,974.17
2023-01-20T06:54:04.357Z,974.06
2023-01-20T06:55:03.818Z,974.22
2023-01-20T06:56:03.809Z,974.14
2023-01-20T06:57:03.798Z,974.09
2023-01-20T06:58:03.803Z,974.09
2023-01-20T06:59:03.742Z,974.20
2023-01-20T07:00:03.734Z,974.15
2023-01-20T07:01:04.002Z,974.23
2023-01-20T07:02:03.953Z,974.31
2023-01-20T07:03:03.817Z,974.23
2023-01-20T07:04:03.764Z,974.32
2023-01-20T07:05:03.853Z,974.32
2023-01-20T07:06:03.716Z,974.29
2023-01-20T07:07:03.694Z,974.37
2023-01-20T07:08:03.554Z,974.37
2023-01-20T07:09:03.625Z,974.51
2023-01-20T07:10:03.618Z,974.37
2023-01-20T07:11:03.635Z,974.37
2023-01-20T07:12:03.652Z,974.46
2023-01-20T07:13:03.603Z,974.32
2023-01-20T07:14:03.599Z,974.41
2023-01-20T07:15:03.628Z,974.52
2023-01-20T07:16:03.678Z,974.30
2023-01-20T07:17:03.633Z,974.52
2023-01-20T07:18:03.560Z,974.44
2023-01-20T07:19:03.574Z,974.38
2023-01-20T07:20:03.481Z,974.30
2023-01-20T07:21:03.502Z,974.41
2023-01-20T07:22:03.490Z,974.52
2023-01-20T07:23:03.526Z,974.41
2023-01-20T07:24:03.598Z,974.66
2023-01-20T07:25:03.542Z,974.69
2023-01-20T07:26:03.516Z,974.52
2023-01-20T07:27:03.473Z,974.66
2023-01-20T07:28:03.413Z,974.58
2023-01-20T07:29:03.370Z,974.60
2023-01-20T07:30:03.316Z,974.72
2023-01-20T07:31:03.311Z,974.58
2023-01-20T07:32:03.218Z,974.60
2023-01-20T07:33:03.277Z,974.66
2023-01-20T07:34:03.256Z,974.74
2023-01-20T07:35:03.234Z,974.72
2023-01-20T07:36:03.232Z,974.77
2023-01-20T07:37:03.305Z,974.72
2023-01-20T07:38:03.497Z,974.66
2023-01-20T07:39:03.317Z,974.80
2023-01-20T07:40:03.322Z,974.69
2023-01-20T07:41:05.382Z,974.86
2023-01-20T07:42:03.237Z,974.58
2023-01-20T07:43:03.188Z,974.83
2023-01-20T07:44:03.049Z,974.58
2023-01-20T07:45:03.125Z,974.64
2023-01-20T07:46:03.221Z,974.72
2023-01-20T07:47:03.102Z,974.83
2023-01-20T07:48:02.968Z,974.77
2023-01-20T07:49:03.911Z,974.77
2023-01-20T07:50:03.858Z,974.94
2023-01-20T07:51:03.837Z,974.77
2023-01-20T07:52:03.865Z,974.88
2023-01-20T07:53:03.710Z,974.75
2023-01-20T07:54:03.700Z,974.86
2023-01-20T07:55:03.612Z,974.88
2023-01-20T07:56:03.614Z,974.91
2023-01-20T07:57:03.638Z,975.01
2023-01-20T07:58:03.485Z,974.94
2023-01-20T07:59:03.480Z,974.94
2023-01-20T08:00:03.447Z,974.86
2023-01-20T08:01:03.580Z,974.88
2023-01-20T08:02:03.422Z,974.95
2023-01-20T08:03:03.377Z,974.88
2023-01-20T08:04:03.319Z,974.83
2023-01-20T08:05:03.433Z,974.94
2023-01-20T08:06:03.104Z,974.98
2023-01-20T08:07:03.172Z,974.95
2023-01-20T08:08:03.007Z,974.98
2023-01-20T08:09:03.068Z,974.85
2023-01-20T08:10:03.171Z,974.85
2023-01-20T08:11:03.175Z,974.95
2023-01-20T08:12:03.178Z,974.88
2023-01-20T08:13:03.038Z,974.88
2023-01-20T08:14:03.058Z,974.93
2023-01-20T08:15:03.050Z,975.03
2023-01-20T08:16:03.331Z,974.95
2023-01-20T08:17:03.365Z,974.93
2023-01-20T08:18:03.422Z,975.03
2023-01-20T08:19:03.351Z,975.22
2023-01-20T08:20:03.293Z,974.95
2023-01-20T08:21:03.173Z,975.22
2023-01-20T08:22:03.154Z,975.11
2023-01-20T08:23:03.280Z,975.17
2023-01-20T08:24:03.206Z,975.14
2023-01-20T08:25:03.112Z,975.05
2023-01-20T08:26:03.014Z,975.22
2023-01-20T08:27:02.968Z,974.95
2023-01-20T08:28:05.766Z,975.16
2023-01-20T08:29:03.853Z,974.95
2023-01-20T08:30:03.841Z,975.02
2023-01-20T08:31:03.848Z,975.24
2023-01-20T08:32:03.791Z,974.94
2023-01-20T08:33:03.715Z,975.21
2023-01-20T08:34:03.729Z,975.18
2023-01-20T08:35:03.733Z,975.16
2023-01-20T08:36:03.799Z,975.24
2023-01-20T08:37:03.713Z,975.21
2023-01-20T08:38:03.744Z,975.27
2023-01-20T08:39:03.687Z,975.18
2023-01-20T08:40:03.669Z,975.29
2023-01-20T08:41:03.701Z,975.13
2023-01-20T08:42:03.647Z,975.21
2023-01-20T08:43:03.648Z,975.24
2023-01-20T08:44:03.780Z,975.18
2023-01-20T08:45:03.606Z,975.29
2023-01-20T08:46:03.724Z,975.36
2023-01-20T08:47:03.511Z,975.39
2023-01-20T08:48:03.468Z,975.42
2023-01-20T08:49:03.423Z,975.42
2023-01-20T08:50:03.402Z,975.53
2023-01-20T08:51:03.412Z,975.44
2023-01-20T08:52:03.394Z,975.39
2023-01-20T08:53:03.302Z,975.42
2023-01-20T08:54:03.205Z,975.36
2023-01-20T08:55:03.213Z,975.39
2023-01-20T08:56:03.423Z,975.50
2023-01-20T08:57:03.452Z,975.47
2023-01-20T08:58:03.431Z,975.52
2023-01-20T08:59:03.521Z,975.41
2023-01-20T09:00:03.531Z,975.50
2023-01-20T09:01:03.501Z,975.41
2023-01-20T09:02:03.593Z,975.39
2023-01-20T09:03:03.517Z,975.66
2023-01-20T09:04:07.513Z,975.69
2023-01-20T09:05:03.305Z,975.50
2023-01-20T09:06:03.284Z,975.47
2023-01-20T09:07:03.141Z,975.55
2023-01-20T09:08:03.141Z,975.60
2023-01-20T09:09:04.940Z,975.66
2023-01-20T09:10:03.136Z,975.63
2023-01-20T09:11:03.122Z,975.52
2023-01-20T09:12:02.999Z,975.74
2023-01-20T09:13:02.987Z,975.77
2023-01-20T09:14:03.085Z,975.65
2023-01-20T09:15:05.341Z,975.65
2023-01-20T09:16:03.009Z,975.82
2023-01-20T09:17:03.917Z,975.76
2023-01-20T09:18:03.816Z,975.74
2023-01-20T09:19:03.818Z,975.68
2023-01-20T09:20:03.814Z,975.76
2023-01-20T09:21:03.823Z,975.93
2023-01-20T09:22:03.806Z,975.79
2023-01-20T09:23:02.987Z,975.96
2023-01-20T09:24:03.889Z,975.90
2023-01-20T09:25:03.853Z,975.82
2023-01-20T09:26:03.747Z,975.96
2023-01-20T09:27:03.632Z,975.90
2023-01-20T09:28:04.559Z,975.82
2023-01-20T09:29:03.543Z,975.96
2023-01-20T09:30:03.521Z,975.98
2023-01-20T09:31:03.696Z,976.01
2023-01-20T09:32:03.566Z,976.01
2023-01-20T09:33:03.491Z,976.07
2023-01-20T09:34:03.395Z,975.90
2023-01-20T09:35:03.869Z,976.01
2023-01-20T09:36:03.812Z,976.12
2023-01-20T09:37:03.705Z,976.04
2023-01-20T09:38:03.764Z,976.04
2023-01-20T09:39:03.797Z,976.28
2023-01-20T09:40:03.667Z,976.12
2023-01-20T09:41:03.646Z,976.01
2023-01-20T09:42:03.702Z,976.09
2023-01-20T09:43:03.712Z,976.06
2023-01-20T09:44:03.666Z,976.12
2023-01-20T09:45:03.504Z,976.06
2023-01-20T09:46:03.513Z,976.14
2023-01-20T09:47:03.395Z,976.17
2023-01-20T09:48:03.319Z,976.11
2023-01-20T09:49:03.278Z,976.22
2023-01-20T09:50:03.219Z,976.31
2023-01-20T09:51:03.071Z,976.17
2023-01-20T09:52:03.078Z,976.22
2023-01-20T09:53:03.260Z,976.11
2023-01-20T09:54:03.217Z,976.30
2023-01-20T09:55:03.071Z,976.22
2023-01-20T09:56:03.117Z,976.13
2023-01-20T09:57:03.195Z,976.16
2023-01-20T09:58:03.292Z,976.19
2023-01-20T09:59:03.171Z,976.24
2023-01-20T10:00:03.166Z,976.07
2023-01-20T10:01:03.389Z,976.07
2023-01-20T10:02:03.322Z,976.16
2023-01-20T10:03:03.584Z,976.13
2023-01-20T10:04:05.227Z,976.26
2023-01-20T10:05:03.293Z,976.24
2023-01-20T10:06:03.436Z,976.21
2023-01-20T10:07:03.337Z,976.18
2023-01-20T10:08:03.385Z,976.23
2023-01-20T10:09:06.983Z,976.29
2023-01-20T10:10:03.296Z,976.29
2023-01-20T10:11:03.406Z,976.31
2023-01-20T10:12:03.395Z,976.31
2023-01-20T10:13:03.343Z,976.31
2023-01-20T10:14:03.263Z,976.28
2023-01-20T10:15:03.277Z,976.34
2023-01-20T10:16:03.489Z,976.31
2023-01-20T10:17:03.247Z,976.39
2023-01-20T10:18:03.284Z,976.36
2023-01-20T10:19:03.232Z,976.31
2023-01-20T10:20:03.222Z,976.28
2023-01-20T10:21:03.292Z,976.44
2023-01-20T10:22:03.171Z,976.39
2023-01-20T10:23:03.182Z,976.41
2023-01-20T10:24:03.063Z,976.44
2023-01-20T10:25:03.057Z,976.41
2023-01-20T10:26:03.050Z,976.41
2023-01-20T10:27:02.963Z,976.41
2023-01-20T10:28:02.917Z,976.46
2023-01-20T10:29:03.012Z,976.43
2023-01-20T10:30:03.099Z,976.35
2023-01-20T10:31:03.307Z,976.46
2023-01-20T10:32:03.036Z,976.45
2023-01-20T10:33:03.106Z,976.37
2023-01-20T10:34:03.078Z,976.51
2023-01-20T10:35:03.135Z,976.48
2023-01-20T10:36:03.020Z,976.39
2023-01-20T10:37:03.100Z,976.47
2023-01-20T10:38:03.116Z,976.47
2023-01-20T10:39:02.947Z,976.39
2023-01-20T10:40:02.972Z,976.41
2023-01-20T10:41:03.864Z,976.55
2023-01-20T10:42:02.975Z,976.41
2023-01-20T10:43:02.845Z,976.46
2023-01-20T10:44:02.946Z,976.52
2023-01-20T10:45:03.844Z,976.43
2023-01-20T10:46:03.898Z,976.54
2023-01-20T10:47:03.754Z,976.46
2023-01-20T10:48:03.759Z,976.40
2023-01-20T10:49:03.786Z,976.51
2023-01-20T10:50:03.547Z,976.43
2023-01-20T10:51:03.645Z,976.40
2023-01-20T10:52:03.581Z,976.45
2023-01-20T10:53:03.672Z,976.45
2023-01-20T10:54:03.647Z,976.67
2023-01-20T10:55:03.566Z,976.45
2023-01-20T10:56:03.559Z,976.50
2023-01-20T10:57:03.329Z,976.55
2023-01-20T10:58:03.402Z,976.52
2023-01-20T10:59:03.397Z,976.52
2023-01-20T11:00:03.585Z,976.52
2023-01-20T11:01:03.398Z,976.49
2023-01-20T11:02:12.851Z,976.60
2023-01-20T11:03:03.581Z,976.46
2023-01-20T11:04:03.429Z,976.49
2023-01-20T11:05:03.531Z,976.51
2023-01-20T11:06:03.496Z,976.57
2023-01-20T11:07:03.377Z,976.40
2023-01-20T11:08:03.329Z,976.56
2023-01-20T11:09:03.454Z,976.45
2023-01-20T11:10:03.391Z,976.53
2023-01-20T11:11:03.354Z,976.53
2023-01-20T11:12:03.288Z,976.66
2023-01-20T11:13:03.228Z,976.55
2023-01-20T11:14:03.158Z,976.55
2023-01-20T11:15:03.215Z,976.54
2023-01-20T11:16:03.272Z,976.52
2023-01-20T11:17:03.198Z,976.63
2023-01-20T11:18:03.234Z,976.54
2023-01-20T11:19:03.196Z,976.57
2023-01-20T11:20:03.121Z,976.54
2023-01-20T11:21:03.253Z,976.59
2023-01-20T11:22:03.091Z,976.62
2023-01-20T11:23:03.102Z,976.56
2023-01-20T11:24:03.110Z,976.56
2023-01-20T11:25:03.152Z,976.64
2023-01-20T11:26:03.163Z,976.66
2023-01-20T11:27:03.184Z,976.64
2023-01-20T11:28:03.045Z,976.66
2023-01-20T11:29:03.072Z,976.58
2023-01-20T11:30:03.064Z,976.63
2023-01-20T11:31:03.221Z,976.60
2023-01-20T11:32:03.210Z,976.57
2023-01-20T11:33:03.230Z,976.68
2023-01-20T11:34:03.146Z,976.71
2023-01-20T11:35:03.802Z,976.78
2023-01-20T11:36:02.878Z,976.62
2023-01-20T11:37:03.823Z,976.67
2023-01-20T11:38:03.039Z,976.62
2023-01-20T11:39:02.964Z,976.73
2023-01-20T11:40:02.989Z,976.70
2023-01-20T11:41:03.823Z,976.64
2023-01-20T11:42:02.888Z,976.64
2023-01-20T11:43:03.842Z,976.67
2023-01-20T11:44:03.798Z,976.80
2023-01-20T11:45:21.810Z,976.74
2023-01-20T11:46:03.786Z,976.74
2023-01-20T11:47:03.884Z,976.58
2023-01-20T11:48:03.227Z,976.69
2023-01-20T11:49:03.218Z,976.69
2023-01-20T11:50:03.148Z,976.69
2023-01-20T11:51:03.171Z,976.69
2023-01-20T11:52:03.292Z,976.69
2023-01-20T11:53:03.093Z,976.66
2023-01-20T11:54:03.014Z,976.82
2023-01-20T11:55:02.984Z,976.69
2023-01-20T11:56:03.140Z,976.69
2023-01-20T11:57:03.564Z,976.87
2023-01-20T11:58:03.583Z,976.66
2023-01-20T11:59:03.548Z,976.95
2023-01-20T12:00:03.399Z,976.66
2023-01-20T12:01:03.274Z,976.74
2023-01-20T12:02:03.458Z,976.65
2023-01-20T12:03:03.361Z,976.74
2023-01-20T12:04:03.340Z,976.75
2023-01-20T12:05:03.252Z,976.87
2023-01-20T12:06:03.232Z,976.95
2023-01-20T12:07:03.190Z,976.98
2023-01-20T12:08:03.036Z,976.84
2023-01-20T12:09:03.022Z,976.95
2023-01-20T12:10:04.006Z,976.92
2023-01-20T12:11:02.919Z,977.06
2023-01-20T12:12:02.992Z,977.00
2023-01-20T12:13:03.022Z,976.92
2023-01-20T12:14:03.181Z,976.95
2023-01-20T12:15:03.078Z,977.06
2023-01-20T12:16:03.052Z,976.94
2023-01-20T12:17:03.135Z,977.06
2023-01-20T12:18:03.164Z,976.92
2023-01-20T12:19:03.485Z,976.94
2023-01-20T12:20:03.215Z,977.08
2023-01-20T12:21:03.060Z,976.89
2023-01-20T12:22:03.026Z,977.06
2023-01-20T12:23:03.143Z,977.03
2023-01-20T12:24:03.698Z,976.94
2023-01-20T12:25:02.882Z,977.06
2023-01-20T12:26:02.951Z,977.11
2023-01-20T12:27:03.012Z,977.25
2023-01-20T12:28:03.856Z,977.22